^^
Station Historical Data
 
Daily Summary for May 25, 2018 Units:  Metric    English   Both
« Previous Day
Next Day »
Daily Weekly Monthly Yearly Custom
  Current: High: Low: Average:
Temperature: 8.6 °C -17.8 °C 8.6 °C 11.2 °C
Dew Point: 6.2 °C -17.8 °C 6.2 °C 6.9 °C
Humidity: 85% Humidity% 60% 74%
Wind Speed: 0km/h 0km/h 0km/h 3.7km/h
Wind Gust: 0km/h 0km/h - -
WindCalm - - WNW
Pressure: 1018.2 hPa 0 hPa 1016.8 hPa -
Precipitation: 0 mm      
Historical Graphs
 
 
Tabular Data for May 25, 2018
Time Temperature Dew Point Pressure Wind Wind Speed Wind Gust Humidity Rainfall Rate (Hourly) solar Conditions
-17.8 °C -17.8 °C 0 hPa Calm     Humidity% 0 mm SolarRadiationWatts/m^2 W/m2 Conditions
00:06 14.5 °C 6.8 °C 1017.8 hPa WNW 7.9 km/h 8 km/h 60% 0 mm 0.0 W/m2
00:12 14.3 °C 6.9 °C 1017.8 hPa WNW 7.9 km/h 9.7 km/h 61% 0 mm 0.0 W/m2
00:18 14.2 °C 7 °C 1017.8 hPa WNW 7.9 km/h 9.7 km/h 62% 0 mm 0.0 W/m2
00:24 14 °C 7.1 °C 1017.8 hPa WNW 7.9 km/h 9.7 km/h 63% 0 mm 0.0 W/m2
00:30 13.9 °C 7 °C 1017.8 hPa WNW 7.9 km/h 9.7 km/h 63% 0 mm 0.0 W/m2
00:37 13.9 °C 7 °C 1017.8 hPa WNW 6.4 km/h 9.7 km/h 63% 0 mm 0.0 W/m2
00:43 13.8 °C 7.1 °C 1017.8 hPa WNW 7.9 km/h 9.7 km/h 64% 0 mm 0.0 W/m2
00:49 13.7 °C 7 °C 1017.5 hPa WNW 7.9 km/h 9.7 km/h 64% 0 mm 0.0 W/m2
00:55 13.4 °C 7 °C 1017.5 hPa WNW 7.9 km/h 8 km/h 65% 0 mm 0.0 W/m2
01:02 13 °C 6.8 °C 1017.5 hPa WNW 7.9 km/h 8 km/h 66% 0 mm 0.0 W/m2
01:08 12.7 °C 6.7 °C 1017.8 hPa WNW 6.4 km/h 8 km/h 67% 0 mm 0.0 W/m2
01:15 12.5 °C 7 °C 1017.8 hPa WNW 7.9 km/h 9.7 km/h 69% 0 mm 0.0 W/m2
01:21 12.7 °C 7.2 °C 1017.8 hPa WNW 7.9 km/h 9.7 km/h 69% 0 mm 0.0 W/m2
01:27 12.7 °C 7.2 °C 1017.8 hPa WNW 7.9 km/h 8 km/h 69% 0 mm 0.0 W/m2
01:34 12.7 °C 7.2 °C 1017.8 hPa WNW 4.7 km/h 6.4 km/h 69% 0 mm 0.0 W/m2
01:40 12.6 °C 7.1 °C 1017.8 hPa Calm     69% 0 mm 0.0 W/m2
01:47 12.6 °C 7.1 °C 1017.8 hPa Calm     69% 0 mm 0.0 W/m2
01:54 12.4 °C 7.1 °C 1017.8 hPa Calm     70% 0 mm 0.0 W/m2
02:00 12.3 °C 7.2 °C 1017.8 hPa Calm     71% 0 mm 0.0 W/m2
02:07 12.3 °C 7.2 °C 1017.8 hPa Calm     71% 0 mm 0.0 W/m2
02:13 12.4 °C 7.5 °C 1017.8 hPa Calm     72% 0 mm 0.0 W/m2
02:20 12.4 °C 7.3 °C 1017.8 hPa Calm     71% 0 mm 0.0 W/m2
02:26 12.2 °C 7.1 °C 1017.8 hPa WNW 7.9 km/h 8 km/h 71% 0 mm 0.0 W/m2
02:33 11.9 °C 7.4 °C 1017.8 hPa WNW 6.4 km/h 8 km/h 74% 0 mm 0.0 W/m2
02:39 11.8 °C 7.3 °C 1017.8 hPa WNW 7.9 km/h 8 km/h 74% 0 mm 0.0 W/m2
02:45 11.7 °C 7.4 °C 1017.8 hPa WNW 7.9 km/h 8 km/h 75% 0 mm 0.0 W/m2
02:51 11.7 °C 7.4 °C 1017.8 hPa WNW 6.4 km/h 8 km/h 75% 0 mm 0.0 W/m2
02:57 11.8 °C 7.7 °C 1017.8 hPa WNW 7.9 km/h 8 km/h 76% 0 mm 0.0 W/m2
03:03 11.8 °C 7.5 °C 1017.8 hPa WNW 6.4 km/h 6.4 km/h 75% 0 mm 0.0 W/m2
03:09 11.7 °C 7.4 °C 1017.8 hPa WNW 4.7 km/h 6.4 km/h 75% 0 mm 0.0 W/m2
03:15 11.6 °C 7.7 °C 1017.5 hPa WNW 9.7 km/h 11.3 km/h 77% 0 mm 0.0 W/m2
03:22 11.8 °C 7.7 °C 1017.5 hPa WNW 6.4 km/h 8 km/h 76% 0 mm 0.0 W/m2
03:29 11.8 °C 7.7 °C 1017.5 hPa WNW 6.4 km/h 8 km/h 76% 0 mm 0.0 W/m2
03:35 11.8 °C 7.7 °C 1017.5 hPa WNW 6.4 km/h 8 km/h 76% 0 mm 0.0 W/m2
03:41 11.7 °C 7.6 °C 1017.5 hPa WNW 6.4 km/h 8 km/h 76% 0 mm 0.0 W/m2
03:47 11.8 °C 7.7 °C 1017.5 hPa WNW 4.7 km/h 6.4 km/h 76% 0 mm 0.0 W/m2
03:54 11.8 °C 7.7 °C 1017.5 hPa WNW 6.4 km/h 8 km/h 76% 0 mm 0.0 W/m2
04:00 11.8 °C 7.7 °C 1017.2 hPa WNW 6.4 km/h 8 km/h 76% 0 mm 0.0 W/m2
04:06 11.7 °C 7.6 °C 1017.5 hPa WNW 6.4 km/h 6.4 km/h 76% 0 mm 0.0 W/m2
04:12 11.6 °C 7.5 °C 1017.2 hPa WNW 6.4 km/h 8 km/h 76% 0 mm 0.0 W/m2
04:18 11.5 °C 7.8 °C 1017.5 hPa WNW 7.9 km/h 9.7 km/h 78% 0 mm 0.0 W/m2
04:25 12.1 °C 8.2 °C 1017.5 hPa WNW 9.7 km/h 12.9 km/h 77% 0 mm 0.0 W/m2
04:31 12.4 °C 7.9 °C 1017.2 hPa WNW 6.4 km/h 9.7 km/h 74% 0 mm 0.0 W/m2
04:37 12.4 °C 7.9 °C 1017.5 hPa WNW 4.7 km/h 6.4 km/h 74% 0 mm 0.0 W/m2
04:44 12.2 °C 7.9 °C 1017.5 hPa Calm     75% 0 mm 0.0 W/m2
04:50 11.9 °C 7.6 °C 1017.2 hPa Calm     75% 0 mm 0.0 W/m2
04:56 11.6 °C 7.5 °C 1017.2 hPa Calm     76% 0 mm 0.0 W/m2
05:04 11.4 °C 7.5 °C 1017.2 hPa Calm     77% 0 mm 0.0 W/m2
05:09 11.1 °C 7.4 °C 1017.2 hPa Calm     78% 0 mm 0.0 W/m2
05:16 10.8 °C 7.1 °C 1017.2 hPa Calm     78% 0 mm 0.0 W/m2
05:23 10.6 °C 7.3 °C 1017.2 hPa Calm     80% 0 mm 0.0 W/m2
05:30 10.5 °C 7.2 °C 1017.2 hPa Calm     80% 0 mm 0.0 W/m2
05:36 10.3 °C 7.2 °C 1016.8 hPa Calm     81% 0 mm 0.0 W/m2
05:43 10.4 °C 7.5 °C 1016.8 hPa Calm     82% 0 mm 0.0 W/m2
05:49 10.3 °C 7.4 °C 1016.8 hPa Calm     82% 0 mm 0.0 W/m2
05:56 10.2 °C 7.1 °C 1016.8 hPa Calm     81% 0 mm 0.0 W/m2
06:03 9.9 °C 6.8 °C 1016.8 hPa Calm     81% 0 mm 0.0 W/m2
06:09 9.8 °C 7.1 °C 1017.2 hPa Calm     83% 0 mm 0.0 W/m2
06:16 9.7 °C 7 °C 1017.5 hPa Calm     83% 0 mm 0.0 W/m2
06:22 9.6 °C 6.9 °C 1017.5 hPa Calm     83% 0 mm 0.0 W/m2
06:28 9.4 °C 6.8 °C 1017.5 hPa Calm     84% 0 mm 0.0 W/m2
06:35 9.3 °C 6.9 °C 1017.5 hPa Calm     85% 0 mm 0.0 W/m2
06:41 9.4 °C 7 °C 1017.5 hPa Calm     85% 0 mm 0.0 W/m2
06:48 9.4 °C 7 °C 1017.5 hPa Calm     85% 0 mm 0.0 W/m2
06:54 9.3 °C 6.7 °C 1017.5 hPa Calm     84% 0 mm 0.0 W/m2
07:01 9.2 °C 6.6 °C 1017.8 hPa Calm     84% 0 mm 0.0 W/m2
07:08 8.9 °C 6.5 °C 1017.8 hPa Calm     85% 0 mm 0.0 W/m2
07:14 8.8 °C 6.4 °C 1017.8 hPa Calm     85% 0 mm 0.0 W/m2
07:21 8.6 °C 6.2 °C 1018.2 hPa Calm     85% 0 mm 0.0 W/m2
Canyon Roadhouse, Fishriver Canyon, Namibia
Compliments of Weather Underground - 2 mb